Time;durP1;ratioP1;P1;durP2;ratioP2;P2;SDS_P1;SDS_P2;PMS_P1;PMS_P2;Temp;Humidity;BMP_temperature;BMP_pressure;BME280_temperature;BME280_humidity;BME280_pressure;Samples;Min_cycle;Max_cycle;Signal;HPM_P1;HPM_P2
2021/07/07 00:00:23;;;;;;;;;;;16.00;75.50;;;;;;5053927;28;20332;-68
2021/07/07 00:02:49;;;;;;;;;;;15.90;75.90;;;;;;5068982;28;19963;-69
2021/07/07 00:05:16;;;;;;;;;;;15.90;76.30;;;;;;5071308;28;19988;-69
2021/07/07 00:07:42;;;;;;;;;;;15.90;76.10;;;;;;5071799;28;19926;-69
2021/07/07 00:10:09;;;;;;;;;;;15.70;77.00;;;;;;5078678;28;19919;-70
2021/07/07 00:12:34;;;;;;;;;;;15.60;77.00;;;;;;5076046;28;20083;-69
2021/07/07 00:15:00;;;;;;;;;;;15.60;77.60;;;;;;5077348;28;20018;-69
2021/07/07 00:17:26;;;;;;;;;;;15.50;77.90;;;;;;5075761;28;19923;-69
2021/07/07 00:19:51;;;;;;;;;;;15.50;78.00;;;;;;5079301;28;20019;-69
2021/07/07 00:22:17;;;;;;;;;;;15.40;78.10;;;;;;5077599;28;20257;-69
2021/07/07 00:24:43;;;;;;;;;;;15.30;78.50;;;;;;5078700;28;19925;-68
2021/07/07 00:27:09;;;;;;;;;;;15.20;79.20;;;;;;5076740;28;19927;-69
2021/07/07 00:29:34;;;;;;;;;;;15.10;79.70;;;;;;5057515;28;19975;-69
2021/07/07 00:32:00;;;;;;;;;;;15.10;79.40;;;;;;5074689;28;20340;-69
2021/07/07 00:34:25;;;;;;;;;;;15.10;79.60;;;;;;5079072;28;20134;-69
2021/07/07 00:36:51;;;;;;;;;;;15.10;80.00;;;;;;5076839;28;19931;-69
2021/07/07 00:39:16;;;;;;;;;;;15.10;79.80;;;;;;5079577;28;19908;-69
2021/07/07 00:41:42;;;;;;;;;;;15.10;79.50;;;;;;5081538;28;20345;-68
2021/07/07 00:44:07;;;;;;;;;;;15.10;79.80;;;;;;5078303;28;20461;-69
2021/07/07 00:46:33;;;;;;;;;;;15.10;79.30;;;;;;5080408;28;20052;-69
2021/07/07 00:48:59;;;;;;;;;;;15.10;80.10;;;;;;5075010;28;19927;-69
2021/07/07 00:51:24;;;;;;;;;;;15.10;80.10;;;;;;5073287;28;19937;-69
2021/07/07 00:53:51;;;;;;;;;;;15.00;80.30;;;;;;5077511;28;19923;-69
2021/07/07 00:56:17;;;;;;;;;;;15.00;80.20;;;;;;5079478;28;19912;-69
2021/07/07 00:58:46;;;;;;;;;;;15.10;80.40;;;;;;5074545;28;20279;-68
2021/07/07 01:01:11;;;;;;;;;;;15.00;80.50;;;;;;5077133;28;20015;-69
2021/07/07 01:03:37;;;;;;;;;;;15.00;80.40;;;;;;5079137;28;20304;-69
2021/07/07 01:06:02;;;;;;;;;;;14.90;81.10;;;;;;5061066;28;19913;-68
2021/07/07 01:08:28;;;;;;;;;;;14.80;81.30;;;;;;5080908;28;20358;-69
2021/07/07 01:10:56;;;;;;;;;;;14.70;81.60;;;;;;5085604;28;19922;-68
2021/07/07 01:13:22;;;;;;;;;;;14.70;82.20;;;;;;5083551;28;19946;-68
2021/07/07 01:15:48;;;;;;;;;;;14.70;82.00;;;;;;5085975;28;19912;-67
2021/07/07 01:18:13;;;;;;;;;;;14.60;82.30;;;;;;5085307;28;20011;-67
2021/07/07 01:20:40;;;;;;;;;;;14.60;82.30;;;;;;5083296;28;20019;-67
2021/07/07 01:23:06;;;;;;;;;;;14.60;82.20;;;;;;5079301;28;19977;-68
2021/07/07 01:25:32;;;;;;;;;;;14.50;82.70;;;;;;5081949;28;20018;-67
2021/07/07 01:28:01;;;;;;;;;;;14.50;82.80;;;;;;5083125;28;20011;-68
2021/07/07 01:30:27;;;;;;;;;;;14.40;83.60;;;;;;5059797;28;19920;-68
2021/07/07 01:32:53;;;;;;;;;;;14.40;83.50;;;;;;5077075;28;19923;-69
2021/07/07 01:35:19;;;;;;;;;;;14.30;83.70;;;;;;5080331;28;19908;-67
2021/07/07 01:37:45;;;;;;;;;;;14.30;84.00;;;;;;5074244;28;20011;-69
2021/07/07 01:40:11;;;;;;;;;;;14.20;84.10;;;;;;5084994;28;19996;-68
2021/07/07 01:42:37;;;;;;;;;;;14.20;84.30;;;;;;5084208;28;19912;-67
2021/07/07 01:45:04;;;;;;;;;;;14.10;84.20;;;;;;5080840;28;20738;-67
2021/07/07 01:47:30;;;;;;;;;;;14.10;84.80;;;;;;5086811;28;19912;-69
2021/07/07 01:49:55;;;;;;;;;;;14.10;84.50;;;;;;5085269;28;19997;-68
2021/07/07 01:52:21;;;;;;;;;;;14.10;84.90;;;;;;5080072;28;20291;-69
2021/07/07 01:54:46;;;;;;;;;;;14.10;85.00;;;;;;5079862;28;19923;-68
2021/07/07 01:57:12;;;;;;;;;;;14.00;85.20;;;;;;5080324;28;19927;-67
2021/07/07 01:59:37;;;;;;;;;;;13.90;85.10;;;;;;5083662;28;20007;-67
2021/07/07 02:02:03;;;;;;;;;;;13.90;85.60;;;;;;5063240;28;19924;-69
2021/07/07 02:04:28;;;;;;;;;;;13.80;85.40;;;;;;5082935;28;19920;-68
2021/07/07 02:06:54;;;;;;;;;;;13.70;86.20;;;;;;5080837;28;19916;-68
2021/07/07 02:09:19;;;;;;;;;;;13.70;86.40;;;;;;5084645;28;19912;-67
2021/07/07 02:11:46;;;;;;;;;;;13.60;86.60;;;;;;5063103;28;19916;-67
2021/07/07 02:14:11;;;;;;;;;;;13.60;86.80;;;;;;5078690;28;19923;-68
2021/07/07 02:16:37;;;;;;;;;;;13.60;87.20;;;;;;5081589;28;20018;-68
2021/07/07 02:19:02;;;;;;;;;;;13.50;87.20;;;;;;5084861;28;20280;-68
2021/07/07 02:21:28;;;;;;;;;;;13.40;87.30;;;;;;5085935;28;19916;-68
2021/07/07 02:23:55;;;;;;;;;;;13.50;87.30;;;;;;5083613;28;20353;-68
2021/07/07 02:26:21;;;;;;;;;;;13.50;87.60;;;;;;5077748;28;19917;-69
2021/07/07 02:28:46;;;;;;;;;;;13.50;87.50;;;;;;5076710;28;19989;-68
2021/07/07 02:31:12;;;;;;;;;;;13.50;87.50;;;;;;5074942;28;20392;-68
2021/07/07 02:33:37;;;;;;;;;;;13.60;87.00;;;;;;5083408;28;19916;-67
2021/07/07 02:36:03;;;;;;;;;;;13.60;87.00;;;;;;5078088;28;20248;-67
2021/07/07 02:38:29;;;;;;;;;;;13.60;86.80;;;;;;5077153;28;19981;-67
2021/07/07 02:40:55;;;;;;;;;;;13.70;86.60;;;;;;5072590;28;19933;-67
2021/07/07 02:43:21;;;;;;;;;;;13.80;86.50;;;;;;5078953;28;19928;-67
2021/07/07 02:45:47;;;;;;;;;;;13.90;86.60;;;;;;5074748;28;20337;-69
2021/07/07 02:48:13;;;;;;;;;;;13.90;86.10;;;;;;5067360;28;19931;-67
2021/07/07 02:50:39;;;;;;;;;;;13.90;85.90;;;;;;5049722;28;19916;-68
2021/07/07 02:53:06;;;;;;;;;;;13.90;86.50;;;;;;5083038;28;19977;-67
2021/07/07 02:55:32;;;;;;;;;;;13.90;86.60;;;;;;5081216;28;20400;-67
2021/07/07 02:58:05;;;;;;;;;;;13.80;86.80;;;;;;5080629;28;19935;-68
2021/07/07 03:00:38;;;;;;;;;;;13.70;86.60;;;;;;5083117;28;19923;-67
2021/07/07 03:03:07;;;;;;;;;;;13.80;86.70;;;;;;5080272;28;19966;-66
2021/07/07 03:05:34;;;;;;;;;;;13.80;86.50;;;;;;5081951;28;20257;-67
2021/07/07 03:08:00;;;;;;;;;;;13.80;86.50;;;;;;5084577;28;20364;-67
2021/07/07 03:10:25;;;;;;;;;;;13.90;86.40;;;;;;5081040;28;19923;-67
2021/07/07 03:12:51;;;;;;;;;;;13.90;86.50;;;;;;5077669;28;19921;-67
2021/07/07 03:15:16;;;;;;;;;;;14.00;86.30;;;;;;5083875;28;19958;-67
2021/07/07 03:17:42;;;;;;;;;;;14.00;85.80;;;;;;5084030;28;20346;-68
2021/07/07 03:20:08;;;;;;;;;;;14.00;85.90;;;;;;5084165;28;19930;-68
2021/07/07 03:22:34;;;;;;;;;;;14.10;85.70;;;;;;5077544;28;20355;-67
2021/07/07 03:25:00;;;;;;;;;;;14.10;85.70;;;;;;5083698;28;20021;-68
2021/07/07 03:27:25;;;;;;;;;;;14.10;85.50;;;;;;5081331;28;19955;-67
2021/07/07 03:29:51;;;;;;;;;;;14.20;85.70;;;;;;5080057;28;20288;-68
2021/07/07 03:32:16;;;;;;;;;;;14.20;85.20;;;;;;5075226;28;19949;-68
2021/07/07 03:34:42;;;;;;;;;;;14.30;84.80;;;;;;5054616;28;20300;-68
2021/07/07 03:37:07;;;;;;;;;;;14.30;85.00;;;;;;5079974;28;19920;-68
2021/07/07 03:39:33;;;;;;;;;;;14.30;84.80;;;;;;5083069;28;20360;-68
2021/07/07 03:41:58;;;;;;;;;;;14.40;84.60;;;;;;5082321;28;19927;-68
2021/07/07 03:44:24;;;;;;;;;;;14.40;84.80;;;;;;5082071;28;19916;-68
2021/07/07 03:46:49;;;;;;;;;;;14.40;84.70;;;;;;5081687;28;20364;-67
2021/07/07 03:49:15;;;;;;;;;;;14.50;84.60;;;;;;5075044;28;19912;-67
2021/07/07 03:51:40;;;;;;;;;;;14.50;84.50;;;;;;5073489;28;19920;-69
2021/07/07 03:54:06;;;;;;;;;;;14.50;84.10;;;;;;5052758;28;20277;-69
2021/07/07 03:56:31;;;;;;;;;;;14.50;84.20;;;;;;5075577;28;20082;-68
2021/07/07 03:58:56;;;;;;;;;;;14.50;84.60;;;;;;5080968;28;20325;-69
2021/07/07 04:01:22;;;;;;;;;;;14.60;84.20;;;;;;5082962;28;19965;-69
2021/07/07 04:03:47;;;;;;;;;;;14.50;84.30;;;;;;5079872;28;20028;-68
2021/07/07 04:06:13;;;;;;;;;;;14.60;84.30;;;;;;5076506;28;19916;-67
2021/07/07 04:08:39;;;;;;;;;;;14.60;84.40;;;;;;5075237;28;20009;-67
2021/07/07 04:11:04;;;;;;;;;;;14.60;84.10;;;;;;5083672;28;20340;-66
2021/07/07 04:13:30;;;;;;;;;;;14.60;84.20;;;;;;5073343;28;19920;-68
2021/07/07 04:15:56;;;;;;;;;;;14.60;84.40;;;;;;5079522;28;19920;-68
2021/07/07 04:18:21;;;;;;;;;;;14.60;84.30;;;;;;5074921;28;19979;-68
2021/07/07 04:20:47;;;;;;;;;;;14.70;84.20;;;;;;5076270;28;20323;-68
2021/07/07 04:23:12;;;;;;;;;;;14.70;84.30;;;;;;5076551;28;19916;-67
2021/07/07 04:25:38;;;;;;;;;;;14.70;83.80;;;;;;5081671;28;19955;-67
2021/07/07 04:28:06;;;;;;;;;;;14.80;83.80;;;;;;5079772;28;19908;-65
2021/07/07 04:30:31;;;;;;;;;;;14.80;83.70;;;;;;5073294;28;19916;-68
2021/07/07 04:32:57;;;;;;;;;;;14.80;83.30;;;;;;5079926;28;19919;-68
2021/07/07 04:35:22;;;;;;;;;;;14.90;84.20;;;;;;5078557;28;19930;-68
2021/07/07 04:37:49;;;;;;;;;;;14.80;83.90;;;;;;5076085;28;19928;-67
2021/07/07 04:40:14;;;;;;;;;;;14.90;84.10;;;;;;5074495;28;20011;-67
2021/07/07 04:42:40;;;;;;;;;;;14.80;84.10;;;;;;5082411;28;19912;-67
2021/07/07 04:45:07;;;;;;;;;;;14.80;84.30;;;;;;5080610;28;19973;-68
2021/07/07 04:47:33;;;;;;;;;;;14.90;84.00;;;;;;5078906;28;19935;-68
2021/07/07 04:49:58;;;;;;;;;;;14.90;84.10;;;;;;5006053;28;1788111;-68
2021/07/07 04:52:24;;;;;;;;;;;14.90;84.20;;;;;;5072719;28;20019;-67
2021/07/07 04:54:49;;;;;;;;;;;14.90;83.60;;;;;;5072611;28;20019;-68
2021/07/07 04:57:15;;;;;;;;;;;15.00;83.90;;;;;;5077437;28;19919;-68
2021/07/07 04:59:41;;;;;;;;;;;15.00;84.00;;;;;;5075619;28;20308;-69
2021/07/07 05:02:06;;;;;;;;;;;15.00;83.80;;;;;;5078046;28;19961;-67
2021/07/07 05:04:31;;;;;;;;;;;15.00;83.70;;;;;;5077880;28;19968;-68
2021/07/07 05:06:57;;;;;;;;;;;15.00;84.00;;;;;;5082956;28;20000;-69
2021/07/07 05:09:22;;;;;;;;;;;15.10;83.80;;;;;;5062427;28;19920;-67
2021/07/07 05:11:48;;;;;;;;;;;15.10;83.50;;;;;;5071827;28;19917;-68
2021/07/07 05:14:14;;;;;;;;;;;15.20;83.40;;;;;;5078928;28;19968;-68
2021/07/07 05:16:39;;;;;;;;;;;15.20;83.50;;;;;;5070425;28;20392;-66
2021/07/07 05:19:05;;;;;;;;;;;15.30;83.40;;;;;;5071171;28;20294;-67
2021/07/07 05:21:31;;;;;;;;;;;15.30;83.00;;;;;;5082808;28;19908;-67
2021/07/07 05:23:56;;;;;;;;;;;15.40;82.90;;;;;;5079259;28;19965;-68
2021/07/07 05:26:22;;;;;;;;;;;15.40;82.70;;;;;;5080056;28;20360;-68
2021/07/07 05:28:47;;;;;;;;;;;15.50;83.00;;;;;;5063232;28;19984;-68
2021/07/07 05:31:13;;;;;;;;;;;15.50;83.50;;;;;;5076445;28;19920;-67
2021/07/07 05:33:38;;;;;;;;;;;15.50;83.10;;;;;;5081608;28;19923;-69
2021/07/07 05:36:05;;;;;;;;;;;15.60;82.90;;;;;;5081662;28;20299;-68
2021/07/07 05:38:31;;;;;;;;;;;15.70;83.00;;;;;;5083505;28;20056;-68
2021/07/07 05:40:56;;;;;;;;;;;15.70;82.30;;;;;;5075479;28;20019;-67
2021/07/07 05:43:23;;;;;;;;;;;15.80;81.80;;;;;;5074907;28;19983;-65
2021/07/07 05:45:49;;;;;;;;;;;15.90;81.80;;;;;;5077583;28;19916;-68
2021/07/07 05:48:14;;;;;;;;;;;16.00;81.70;;;;;;5067241;28;19916;-67
2021/07/07 05:50:40;;;;;;;;;;;16.10;81.20;;;;;;5077460;28;19916;-69
2021/07/07 05:53:05;;;;;;;;;;;16.10;80.40;;;;;;5075409;28;19931;-72
2021/07/07 05:55:32;;;;;;;;;;;16.10;80.80;;;;;;5062167;28;19950;-68
2021/07/07 05:57:57;;;;;;;;;;;16.10;80.90;;;;;;5072653;28;20390;-68
2021/07/07 06:00:24;;;;;;;;;;;16.10;81.30;;;;;;5077313;28;20015;-67
2021/07/07 06:02:51;;;;;;;;;;;16.10;81.50;;;;;;5085764;28;19916;-66
2021/07/07 06:05:17;;;;;;;;;;;16.00;81.40;;;;;;5064352;28;20266;-68
2021/07/07 06:07:43;;;;;;;;;;;16.00;81.80;;;;;;5073511;28;19908;-68
2021/07/07 06:10:10;;;;;;;;;;;16.00;81.90;;;;;;5074904;28;19916;-69
2021/07/07 06:12:36;;;;;;;;;;;16.00;81.60;;;;;;5083252;28;20042;-67
2021/07/07 06:15:02;;;;;;;;;;;16.00;81.70;;;;;;5078654;28;19995;-69
2021/07/07 06:17:27;;;;;;;;;;;16.00;81.40;;;;;;5085938;28;20071;-69
2021/07/07 06:19:53;;;;;;;;;;;16.10;81.80;;;;;;5084570;28;20007;-68
2021/07/07 06:22:18;;;;;;;;;;;16.20;81.40;;;;;;5086052;28;19928;-68
2021/07/07 06:24:44;;;;;;;;;;;16.30;80.60;;;;;;5083817;28;19942;-67
2021/07/07 06:27:09;;;;;;;;;;;16.40;80.80;;;;;;5081182;28;20058;-67
2021/07/07 06:29:35;;;;;;;;;;;16.60;80.20;;;;;;5077493;28;19995;-68
2021/07/07 06:32:01;;;;;;;;;;;16.70;79.70;;;;;;5077814;28;19993;-69
2021/07/07 06:34:26;;;;;;;;;;;16.90;79.20;;;;;;5054306;28;19923;-68
2021/07/07 06:36:52;;;;;;;;;;;16.90;79.70;;;;;;5072492;28;19913;-68
2021/07/07 06:39:17;;;;;;;;;;;17.10;78.90;;;;;;5075973;28;19943;-68
2021/07/07 06:41:43;;;;;;;;;;;17.50;79.20;;;;;;5082092;28;19939;-71
2021/07/07 06:44:08;;;;;;;;;;;17.50;77.10;;;;;;5076045;28;20003;-69
2021/07/07 06:46:35;;;;;;;;;;;17.60;77.70;;;;;;5083050;28;19912;-68
2021/07/07 06:49:02;;;;;;;;;;;17.50;76.50;;;;;;5072015;28;19980;-68
2021/07/07 06:51:27;;;;;;;;;;;17.50;76.30;;;;;;5077969;28;19928;-68
2021/07/07 06:53:53;;;;;;;;;;;17.70;78.00;;;;;;5068728;28;20294;-69
2021/07/07 06:56:18;;;;;;;;;;;18.00;77.40;;;;;;5080820;28;19957;-69
2021/07/07 06:58:44;;;;;;;;;;;18.40;75.70;;;;;;5083910;28;19920;-68
2021/07/07 07:01:09;;;;;;;;;;;18.50;75.40;;;;;;5082194;28;20077;-70
2021/07/07 07:03:35;;;;;;;;;;;18.60;73.60;;;;;;5079263;28;20013;-67
2021/07/07 07:06:00;;;;;;;;;;;18.40;74.10;;;;;;5082424;28;20332;-66
2021/07/07 07:08:26;;;;;;;;;;;18.30;74.50;;;;;;5083036;28;19931;-66
2021/07/07 07:10:51;;;;;;;;;;;18.50;74.60;;;;;;5079364;28;19920;-68
2021/07/07 07:13:17;;;;;;;;;;;18.60;75.50;;;;;;5082352;28;19991;-67
2021/07/07 07:15:46;;;;;;;;;;;18.40;74.80;;;;;;5063712;28;19985;-67
2021/07/07 07:18:12;;;;;;;;;;;18.20;74.50;;;;;;5073899;28;19928;-67
2021/07/07 07:20:37;;;;;;;;;;;18.50;75.80;;;;;;5081709;28;19953;-69
2021/07/07 07:23:04;;;;;;;;;;;18.80;74.40;;;;;;5055398;28;20180;-68
2021/07/07 07:25:30;;;;;;;;;;;19.30;72.40;;;;;;5077728;28;20337;-68
2021/07/07 07:27:55;;;;;;;;;;;19.40;69.80;;;;;;5083561;28;19989;-67
2021/07/07 07:30:21;;;;;;;;;;;19.20;70.70;;;;;;5080396;28;20560;-69
2021/07/07 07:32:47;;;;;;;;;;;19.10;69.40;;;;;;5057420;28;20369;-67
2021/07/07 07:35:14;;;;;;;;;;;19.40;71.20;;;;;;5082697;28;20025;-67
2021/07/07 07:40:14;;;;;;;;;;;20.00;70.10;;;;;;5078504;28;19928;-67
2021/07/07 07:42:44;;;;;;;;;;;20.40;70.30;;;;;;5081366;28;19939;-67
2021/07/07 07:45:10;;;;;;;;;;;20.50;66.80;;;;;;5074021;28;20077;-68
2021/07/07 07:47:36;;;;;;;;;;;20.60;67.10;;;;;;5078066;28;20269;-67
2021/07/07 07:50:03;;;;;;;;;;;20.60;66.80;;;;;;5074753;28;19920;-68
2021/07/07 07:52:28;;;;;;;;;;;20.60;64.00;;;;;;5076480;28;20336;-69
2021/07/07 07:54:54;;;;;;;;;;;20.80;65.30;;;;;;5082148;28;19957;-69
2021/07/07 07:57:19;;;;;;;;;;;20.80;65.50;;;;;;5076933;28;19999;-68
2021/07/07 07:59:45;;;;;;;;;;;20.80;62.60;;;;;;5067207;28;19975;-68
2021/07/07 08:02:10;;;;;;;;;;;20.90;64.30;;;;;;5076054;28;20008;-69
2021/07/07 08:04:36;;;;;;;;;;;21.20;63.10;;;;;;5059827;28;19924;-68
2021/07/07 08:07:01;;;;;;;;;;;21.20;60.90;;;;;;5060544;28;21623;-68
2021/07/07 08:09:27;;;;;;;;;;;21.30;64.20;;;;;;5054871;28;19923;-69
2021/07/07 08:11:54;;;;;;;;;;;21.60;63.00;;;;;;5076581;28;20240;-69
2021/07/07 08:14:20;;;;;;;;;;;21.40;60.10;;;;;;5074626;28;20054;-68
2021/07/07 08:16:46;;;;;;;;;;;21.50;60.40;;;;;;5076057;28;20007;-68
2021/07/07 08:19:11;;;;;;;;;;;21.80;59.60;;;;;;5067140;28;20265;-70
2021/07/07 08:21:36;;;;;;;;;;;21.80;57.90;;;;;;5078245;28;20198;-69
2021/07/07 08:24:03;;;;;;;;;;;21.70;58.20;;;;;;5075034;28;20474;-69
2021/07/07 08:26:29;;;;;;;;;;;22.00;60.30;;;;;;5074112;28;19985;-69
2021/07/07 08:28:58;;;;;;;;;;;22.10;60.80;;;;;;5065293;28;20036;-71
2021/07/07 08:31:24;;;;;;;;;;;22.10;58.00;;;;;;5076226;28;20035;-69
2021/07/07 08:33:49;;;;;;;;;;;22.10;60.40;;;;;;5071719;28;19927;-71
2021/07/07 08:36:20;;;;;;;;;;;22.10;57.90;;;;;;5077012;28;19996;-70
2021/07/07 08:38:45;;;;;;;;;;;22.00;57.90;;;;;;5081928;28;20310;-71
2021/07/07 08:41:11;;;;;;;;;;;22.00;59.50;;;;;;5073069;28;19927;-72
2021/07/07 08:43:37;;;;;;;;;;;22.20;56.70;;;;;;5064515;28;19924;-72
2021/07/07 08:46:02;;;;;;;;;;;22.50;59.10;;;;;;5073301;28;19951;-69
2021/07/07 08:48:28;;;;;;;;;;;22.60;57.40;;;;;;5050198;28;20070;-69
2021/07/07 08:50:57;;;;;;;;;;;22.60;56.60;;;;;;5066382;28;19931;-72
2021/07/07 08:53:24;;;;;;;;;;;22.80;57.40;;;;;;5083052;28;19912;-68
2021/07/07 08:55:52;;;;;;;;;;;23.00;57.60;;;;;;5079064;28;19939;-71
2021/07/07 08:58:17;;;;;;;;;;;23.10;53.70;;;;;;5081060;28;19961;-68
2021/07/07 09:00:43;;;;;;;;;;;23.10;57.70;;;;;;5074349;28;20080;-70
2021/07/07 09:03:10;;;;;;;;;;;23.40;57.00;;;;;;5075118;28;19917;-72
2021/07/07 09:05:54;;;;;;;;;;;23.50;56.50;;;;;;5079456;28;19919;-71
2021/07/07 09:08:22;;;;;;;;;;;23.50;55.70;;;;;;5079437;28;19934;-70
2021/07/07 09:10:48;;;;;;;;;;;23.50;54.60;;;;;;5069795;28;19969;-71
2021/07/07 09:13:14;;;;;;;;;;;23.40;55.90;;;;;;5078042;28;19981;-70
2021/07/07 09:15:40;;;;;;;;;;;23.50;53.70;;;;;;5082873;28;19988;-70
2021/07/07 09:18:06;;;;;;;;;;;23.50;51.90;;;;;;5080328;28;20063;-71
2021/07/07 09:20:40;;;;;;;;;;;23.40;52.30;;;;;;5078145;28;19973;-71
2021/07/07 09:23:12;;;;;;;;;;;23.70;53.20;;;;;;5078073;28;20377;-70
2021/07/07 09:25:44;;;;;;;;;;;24.20;55.40;;;;;;5080657;28;19928;-68
2021/07/07 09:28:16;;;;;;;;;;;24.40;54.90;;;;;;5082838;28;19912;-73
2021/07/07 09:30:41;;;;;;;;;;;24.40;53.60;;;;;;5082182;28;19922;-70
2021/07/07 09:33:09;;;;;;;;;;;24.30;52.90;;;;;;5081442;28;19916;-70
2021/07/07 09:35:34;;;;;;;;;;;24.20;50.20;;;;;;5085600;28;19972;-72
2021/07/07 09:38:04;;;;;;;;;;;24.30;51.90;;;;;;5072860;28;19955;-70
2021/07/07 09:40:30;;;;;;;;;;;24.40;50.40;;;;;;5082912;28;19936;-69
2021/07/07 09:42:55;;;;;;;;;;;24.40;49.60;;;;;;5080492;28;19912;-72
2021/07/07 09:45:24;;;;;;;;;;;24.50;49.80;;;;;;5082914;28;19927;-69
2021/07/07 09:47:50;;;;;;;;;;;24.50;51.50;;;;;;5080448;28;19916;-70
2021/07/07 09:50:16;;;;;;;;;;;24.50;47.60;;;;;;5082234;28;20280;-71
2021/07/07 09:52:42;;;;;;;;;;;24.10;47.30;;;;;;5056721;28;19940;-70
2021/07/07 09:55:09;;;;;;;;;;;24.30;48.50;;;;;;5085329;28;20006;-71
2021/07/07 09:57:45;;;;;;;;;;;24.50;50.50;;;;;;5059826;28;19946;-70
2021/07/07 10:00:15;;;;;;;;;;;24.50;51.60;;;;;;5085001;28;19925;-69
2021/07/07 10:02:41;;;;;;;;;;;25.10;47.60;;;;;;5075491;28;20007;-71
2021/07/07 10:05:09;;;;;;;;;;;24.90;45.80;;;;;;5081751;28;20368;-70
2021/07/07 10:07:35;;;;;;;;;;;25.10;46.80;;;;;;5078817;28;20427;-69
2021/07/07 10:10:01;;;;;;;;;;;25.00;45.20;;;;;;5061317;28;19995;-69
2021/07/07 10:12:29;;;;;;;;;;;25.40;45.10;;;;;;5075601;28;20536;-70
2021/07/07 10:14:55;;;;;;;;;;;25.40;47.30;;;;;;5084608;28;19919;-72
2021/07/07 10:17:21;;;;;;;;;;;25.90;46.20;;;;;;5081706;28;19912;-74
2021/07/07 10:19:47;;;;;;;;;;;25.50;46.60;;;;;;5078456;28;19923;-69
2021/07/07 10:22:13;;;;;;;;;;;25.50;45.10;;;;;;5081322;28;19966;-70
2021/07/07 10:24:39;;;;;;;;;;;26.00;46.10;;;;;;5085511;28;20003;-71
2021/07/07 10:27:05;;;;;;;;;;;26.20;43.00;;;;;;5083464;28;20018;-69
2021/07/07 10:29:33;;;;;;;;;;;26.10;42.20;;;;;;5080125;28;19920;-71
2021/07/07 10:32:00;;;;;;;;;;;26.00;43.80;;;;;;5079626;28;19915;-72
2021/07/07 10:34:26;;;;;;;;;;;26.10;41.30;;;;;;5080597;28;20052;-69
2021/07/07 10:36:52;;;;;;;;;;;26.40;43.50;;;;;;5067986;28;19916;-73
2021/07/07 10:39:18;;;;;;;;;;;26.40;42.90;;;;;;5085088;28;20158;-74
2021/07/07 10:41:47;;;;;;;;;;;26.40;40.00;;;;;;5082813;28;19969;-69
2021/07/07 10:44:21;;;;;;;;;;;26.50;42.50;;;;;;5081787;28;20363;-72
2021/07/07 10:47:01;;;;;;;;;;;26.40;42.30;;;;;;5080432;28;19977;-71
2021/07/07 10:49:27;;;;;;;;;;;26.50;40.90;;;;;;5078871;28;20249;-69
2021/07/07 10:51:54;;;;;;;;;;;26.20;44.10;;;;;;5081704;28;20011;-70
2021/07/07 10:54:27;;;;;;;;;;;25.90;43.50;;;;;;5069677;28;19924;-71
2021/07/07 10:56:53;;;;;;;;;;;26.60;42.50;;;;;;5076579;28;19967;-69
2021/07/07 10:59:35;;;;;;;;;;;26.00;42.20;;;;;;5066755;28;20462;-69
2021/07/07 11:02:07;;;;;;;;;;;26.40;45.90;;;;;;5073966;28;20396;-69
2021/07/07 11:04:40;;;;;;;;;;;27.00;40.20;;;;;;5081585;28;19920;-69
2021/07/07 11:07:23;;;;;;;;;;;26.80;39.40;;;;;;5081367;28;20063;-68
2021/07/07 11:09:52;;;;;;;;;;;27.00;39.20;;;;;;5076497;28;19939;-71
2021/07/07 11:12:19;;;;;;;;;;;26.90;39.60;;;;;;5082930;28;19920;-74
2021/07/07 11:14:58;;;;;;;;;;;26.90;41.20;;;;;;5075483;28;19924;-68
2021/07/07 11:17:23;;;;;;;;;;;27.00;39.10;;;;;;5082512;28;19920;-70
2021/07/07 11:19:50;;;;;;;;;;;27.40;40.50;;;;;;5079378;28;19920;-69
2021/07/07 11:22:17;;;;;;;;;;;26.80;41.00;;;;;;5080727;28;19938;-70
2021/07/07 11:24:47;;;;;;;;;;;27.70;41.30;;;;;;5075686;28;19970;-70
2021/07/07 11:27:12;;;;;;;;;;;27.10;42.20;;;;;;5074597;28;20252;-68
2021/07/07 11:29:38;;;;;;;;;;;27.20;38.40;;;;;;5079588;28;19912;-72
2021/07/07 11:32:22;;;;;;;;;;;27.50;40.20;;;;;;5083352;28;20029;-70
2021/07/07 11:34:53;;;;;;;;;;;28.00;40.50;;;;;;5076008;28;19968;-71
2021/07/07 11:37:19;;;;;;;;;;;28.00;39.20;;;;;;5077542;28;20371;-69
2021/07/07 11:39:45;;;;;;;;;;;27.90;38.40;;;;;;5072349;28;20398;-71
2021/07/07 11:42:10;;;;;;;;;;;27.80;38.70;;;;;;5072846;28;20018;-71
2021/07/07 11:44:42;;;;;;;;;;;27.20;38.50;;;;;;5069993;28;19917;-70
2021/07/07 11:47:09;;;;;;;;;;;28.30;40.10;;;;;;5074157;28;19942;-72
2021/07/07 11:49:34;;;;;;;;;;;28.20;37.20;;;;;;5084332;28;19916;-69
2021/07/07 11:52:02;;;;;;;;;;;28.60;35.80;;;;;;5077156;28;19916;-69
2021/07/07 11:54:28;;;;;;;;;;;27.50;38.60;;;;;;5051789;28;20288;-72
2021/07/07 11:56:59;;;;;;;;;;;27.40;40.00;;;;;;5077888;28;19947;-70
2021/07/07 11:59:26;;;;;;;;;;;26.60;41.10;;;;;;5079433;28;19995;-72
2021/07/07 12:01:56;;;;;;;;;;;27.50;38.90;;;;;;5061569;28;20510;-73
2021/07/07 12:04:25;;;;;;;;;;;28.50;39.40;;;;;;5078724;28;19912;-70
2021/07/07 12:06:55;;;;;;;;;;;28.70;36.80;;;;;;5074093;28;20017;-67
2021/07/07 12:09:22;;;;;;;;;;;29.50;39.30;;;;;;5077409;28;20060;-69
2021/07/07 12:11:51;;;;;;;;;;;29.00;36.50;;;;;;5079745;28;19916;-70
2021/07/07 12:14:16;;;;;;;;;;;28.40;35.50;;;;;;5077876;28;19920;-70
2021/07/07 12:16:44;;;;;;;;;;;28.20;38.10;;;;;;5073975;28;19917;-73
2021/07/07 12:19:11;;;;;;;;;;;27.40;40.60;;;;;;5072251;28;19920;-72
2021/07/07 12:21:47;;;;;;;;;;;26.90;40.10;;;;;;5075165;28;19955;-73
2021/07/07 12:24:13;;;;;;;;;;;26.90;39.70;;;;;;5080691;28;20038;-72
2021/07/07 12:26:40;;;;;;;;;;;26.60;38.90;;;;;;5077644;28;19956;-72
2021/07/07 12:29:06;;;;;;;;;;;26.50;39.80;;;;;;5054885;28;19918;-71
2021/07/07 12:31:35;;;;;;;;;;;26.70;41.40;;;;;;5076116;28;19970;-71
2021/07/07 12:34:01;;;;;;;;;;;26.90;39.90;;;;;;5075186;28;19916;-68
2021/07/07 12:36:28;;;;;;;;;;;27.70;40.70;;;;;;5078336;28;20359;-70
2021/07/07 12:38:56;;;;;;;;;;;28.60;39.50;;;;;;5076094;28;20045;-68
2021/07/07 12:41:38;;;;;;;;;;;28.40;39.40;;;;;;5078169;28;19989;-72
2021/07/07 12:44:14;;;;;;;;;;;27.80;39.10;;;;;;5076742;28;19923;-69
2021/07/07 12:46:50;;;;;;;;;;;26.80;41.80;;;;;;5079699;28;19924;-67
2021/07/07 12:49:22;;;;;;;;;;;26.50;42.20;;;;;;5075563;28;20007;-68
2021/07/07 12:51:51;;;;;;;;;;;26.20;43.20;;;;;;5073830;28;19920;-67
2021/07/07 12:54:20;;;;;;;;;;;25.70;43.20;;;;;;5079481;28;20287;-66
2021/07/07 12:56:58;;;;;;;;;;;26.00;44.30;;;;;;5071352;28;19913;-70
2021/07/07 12:59:24;;;;;;;;;;;25.20;45.40;;;;;;5074922;28;19963;-68
2021/07/07 13:02:01;;;;;;;;;;;26.00;43.60;;;;;;5075573;28;19908;-68
2021/07/07 13:04:27;;;;;;;;;;;26.20;44.10;;;;;;5078126;28;20341;-69
2021/07/07 13:07:02;;;;;;;;;;;27.50;42.00;;;;;;5082401;28;19908;-69
2021/07/07 13:09:28;;;;;;;;;;;28.90;41.70;;;;;;5080926;28;19919;-71
2021/07/07 13:12:03;;;;;;;;;;;30.00;36.80;;;;;;5078438;28;20317;-72
2021/07/07 13:14:28;;;;;;;;;;;29.50;36.00;;;;;;5083285;28;20349;-72
2021/07/07 13:16:54;;;;;;;;;;;29.50;37.00;;;;;;5082418;28;19908;-71
2021/07/07 13:19:27;;;;;;;;;;;28.40;38.00;;;;;;5077422;28;19920;-68
2021/07/07 13:21:52;;;;;;;;;;;28.70;39.00;;;;;;5077130;28;20237;-72
2021/07/07 13:24:18;;;;;;;;;;;29.00;38.40;;;;;;5082732;28;19927;-69
2021/07/07 13:26:46;;;;;;;;;;;28.90;37.90;;;;;;5080914;28;19908;-70
2021/07/07 13:29:19;;;;;;;;;;;28.50;37.30;;;;;;5076803;28;19916;-68
2021/07/07 13:31:45;;;;;;;;;;;29.00;37.90;;;;;;5076328;28;20016;-69
2021/07/07 13:34:10;;;;;;;;;;;29.90;36.70;;;;;;5080179;28;19983;-68
2021/07/07 13:36:36;;;;;;;;;;;29.30;36.60;;;;;;5079719;28;19987;-69
2021/07/07 13:39:06;;;;;;;;;;;28.40;38.40;;;;;;5078924;28;19916;-69
2021/07/07 13:41:31;;;;;;;;;;;27.40;40.80;;;;;;5082855;28;20244;-69
2021/07/07 13:43:57;;;;;;;;;;;27.30;41.10;;;;;;5078167;28;19918;-69
2021/07/07 13:46:23;;;;;;;;;;;26.90;40.50;;;;;;5078397;28;19908;-69
2021/07/07 13:48:48;;;;;;;;;;;27.30;40.60;;;;;;5076797;28;20058;-71
2021/07/07 13:51:14;;;;;;;;;;;28.00;41.10;;;;;;5076727;28;20003;-72
2021/07/07 13:53:39;;;;;;;;;;;28.80;40.90;;;;;;5080040;28;19920;-69
2021/07/07 13:56:05;;;;;;;;;;;28.00;39.90;;;;;;5079564;28;19963;-71
2021/07/07 13:58:30;;;;;;;;;;;27.00;40.20;;;;;;5082274;28;19935;-70
2021/07/07 14:00:56;;;;;;;;;;;26.50;42.10;;;;;;5082559;28;19912;-68
2021/07/07 14:03:21;;;;;;;;;;;26.40;43.00;;;;;;5081496;28;19916;-71
2021/07/07 14:05:46;;;;;;;;;;;26.40;44.40;;;;;;5081267;28;20114;-68
2021/07/07 14:08:14;;;;;;;;;;;27.10;42.00;;;;;;5080636;28;20214;-69
2021/07/07 14:10:39;;;;;;;;;;;27.20;41.10;;;;;;5078902;28;19927;-68
2021/07/07 14:13:05;;;;;;;;;;;27.00;41.80;;;;;;5081217;28;19924;-69
2021/07/07 14:15:30;;;;;;;;;;;27.50;42.80;;;;;;5081082;28;19912;-70